sensor_id;sensor_type;location;lat;lon;timestamp;pressure;altitude;pressure_sealevel;temperature;humidity
29733;BME280;16643;43.158;25.302;2022-07-22T00:02:17;97775.50;;;24.38;45.93
29733;BME280;16643;43.158;25.302;2022-07-22T00:04:43;97814.66;;;24.65;45.78
29733;BME280;16643;43.158;25.302;2022-07-22T00:07:09;97821.66;;;24.56;46.49
29733;BME280;16643;43.158;25.302;2022-07-22T00:09:34;97816.94;;;24.60;46.37
29733;BME280;16643;43.158;25.302;2022-07-22T00:12:00;97841.13;;;24.67;46.37
29733;BME280;16643;43.158;25.302;2022-07-22T00:14:26;97838.59;;;24.55;46.44
29733;BME280;16643;43.158;25.302;2022-07-22T00:16:51;97804.06;;;24.36;46.37
29733;BME280;16643;43.158;25.302;2022-07-22T00:19:17;97843.66;;;24.58;46.31
29733;BME280;16643;43.158;25.302;2022-07-22T00:21:43;97836.50;;;24.59;46.68
29733;BME280;16643;43.158;25.302;2022-07-22T00:24:08;97840.53;;;24.73;45.97
29733;BME280;16643;43.158;25.302;2022-07-22T00:26:34;97814.69;;;24.55;45.99
29733;BME280;16643;43.158;25.302;2022-07-22T00:29:00;97806.56;;;24.47;45.60
29733;BME280;16643;43.158;25.302;2022-07-22T00:31:26;97841.97;;;24.57;46.17
29733;BME280;16643;43.158;25.302;2022-07-22T00:33:51;97820.00;;;24.46;46.13
29733;BME280;16643;43.158;25.302;2022-07-22T00:36:17;97848.97;;;24.58;46.04
29733;BME280;16643;43.158;25.302;2022-07-22T00:38:43;97813.41;;;24.31;46.32
29733;BME280;16643;43.158;25.302;2022-07-22T00:41:09;97841.97;;;24.48;46.48
29733;BME280;16643;43.158;25.302;2022-07-22T00:46:25;97825.84;;;24.40;46.67
29733;BME280;16643;43.158;25.302;2022-07-22T00:48:52;97871.47;;;24.64;46.73
29733;BME280;16643;43.158;25.302;2022-07-22T00:51:18;97869.25;;;24.59;46.68
29733;BME280;16643;43.158;25.302;2022-07-22T00:53:46;97880.44;;;24.63;46.66
29733;BME280;16643;43.158;25.302;2022-07-22T00:56:12;97888.53;;;24.61;47.45
29733;BME280;16643;43.158;25.302;2022-07-22T00:58:37;97874.53;;;24.50;46.68
29733;BME280;16643;43.158;25.302;2022-07-22T01:01:03;97887.56;;;24.53;47.57
29733;BME280;16643;43.158;25.302;2022-07-22T01:03:30;97884.78;;;24.45;46.92
29733;BME280;16643;43.158;25.302;2022-07-22T01:05:55;97862.31;;;24.18;47.31
29733;BME280;16643;43.158;25.302;2022-07-22T01:08:21;97891.00;;;24.15;47.95
29733;BME280;16643;43.158;25.302;2022-07-22T01:10:47;97850.66;;;23.91;48.11
29733;BME280;16643;43.158;25.302;2022-07-22T01:13:13;97892.50;;;24.08;48.29
29733;BME280;16643;43.158;25.302;2022-07-22T01:15:38;97866.28;;;23.84;48.48
29733;BME280;16643;43.158;25.302;2022-07-22T01:18:04;97883.38;;;23.91;48.67
29733;BME280;16643;43.158;25.302;2022-07-22T01:20:30;97903.97;;;24.08;48.62
29733;BME280;16643;43.158;25.302;2022-07-22T01:22:56;97857.34;;;23.85;48.50
29733;BME280;16643;43.158;25.302;2022-07-22T01:25:22;97888.47;;;24.04;48.79
29733;BME280;16643;43.158;25.302;2022-07-22T01:27:48;97886.19;;;23.99;49.09
29733;BME280;16643;43.158;25.302;2022-07-22T01:30:13;97905.53;;;24.11;48.89
29733;BME280;16643;43.158;25.302;2022-07-22T01:32:39;97904.50;;;23.93;48.71
29733;BME280;16643;43.158;25.302;2022-07-22T01:35:05;97848.38;;;23.46;49.79
29733;BME280;16643;43.158;25.302;2022-07-22T01:37:34;97909.19;;;23.79;50.32
29733;BME280;16643;43.158;25.302;2022-07-22T01:39:59;97874.16;;;23.55;50.98
29733;BME280;16643;43.158;25.302;2022-07-22T01:42:25;97880.56;;;23.52;50.29
29733;BME280;16643;43.158;25.302;2022-07-22T01:44:51;97837.63;;;23.17;50.40
29733;BME280;16643;43.158;25.302;2022-07-22T01:47:17;97886.38;;;23.26;50.64
29733;BME280;16643;43.158;25.302;2022-07-22T01:49:43;97905.03;;;23.35;50.77
29733;BME280;16643;43.158;25.302;2022-07-22T01:52:08;97875.22;;;23.22;51.11
29733;BME280;16643;43.158;25.302;2022-07-22T01:54:34;97871.38;;;23.15;50.60
29733;BME280;16643;43.158;25.302;2022-07-22T01:56:59;97850.25;;;23.04;51.44
29733;BME280;16643;43.158;25.302;2022-07-22T01:59:25;97874.38;;;23.22;51.34
29733;BME280;16643;43.158;25.302;2022-07-22T02:01:51;97876.22;;;23.31;51.57
29733;BME280;16643;43.158;25.302;2022-07-22T02:04:16;97851.47;;;23.21;51.87
29733;BME280;16643;43.158;25.302;2022-07-22T02:06:42;97865.75;;;23.29;52.21
29733;BME280;16643;43.158;25.302;2022-07-22T02:09:07;97880.53;;;23.22;51.81
29733;BME280;16643;43.158;25.302;2022-07-22T02:11:34;97846.97;;;22.91;52.20
29733;BME280;16643;43.158;25.302;2022-07-22T02:13:59;97860.28;;;22.79;52.63
29733;BME280;16643;43.158;25.302;2022-07-22T02:16:25;97848.91;;;22.57;53.52
29733;BME280;16643;43.158;25.302;2022-07-22T02:18:51;97870.84;;;22.48;53.99
29733;BME280;16643;43.158;25.302;2022-07-22T02:21:16;97859.59;;;22.34;54.55
29733;BME280;16643;43.158;25.302;2022-07-22T02:23:42;97824.09;;;22.26;54.56
29733;BME280;16643;43.158;25.302;2022-07-22T02:26:08;97859.84;;;22.31;54.72
29733;BME280;16643;43.158;25.302;2022-07-22T02:28:34;97860.31;;;22.36;55.07
29733;BME280;16643;43.158;25.302;2022-07-22T02:31:00;97853.84;;;22.29;55.20
29733;BME280;16643;43.158;25.302;2022-07-22T02:33:26;97854.44;;;22.33;55.49
29733;BME280;16643;43.158;25.302;2022-07-22T02:35:51;97887.44;;;22.61;55.17
29733;BME280;16643;43.158;25.302;2022-07-22T02:38:17;97843.13;;;22.31;55.55
29733;BME280;16643;43.158;25.302;2022-07-22T02:40:43;97848.44;;;22.20;56.08
29733;BME280;16643;43.158;25.302;2022-07-22T02:43:08;97870.00;;;22.15;55.93
29733;BME280;16643;43.158;25.302;2022-07-22T02:45:34;97847.63;;;22.08;55.75
29733;BME280;16643;43.158;25.302;2022-07-22T02:47:59;97844.47;;;22.14;55.60
29733;BME280;16643;43.158;25.302;2022-07-22T02:50:25;97884.06;;;22.27;55.59
29733;BME280;16643;43.158;25.302;2022-07-22T02:52:52;97846.53;;;22.22;55.59
29733;BME280;16643;43.158;25.302;2022-07-22T02:55:18;97844.16;;;22.39;55.62
29733;BME280;16643;43.158;25.302;2022-07-22T02:57:44;97879.22;;;22.64;55.02
29733;BME280;16643;43.158;25.302;2022-07-22T03:00:11;97872.31;;;22.72;55.22
29733;BME280;16643;43.158;25.302;2022-07-22T03:02:39;97873.78;;;22.76;54.54
29733;BME280;16643;43.158;25.302;2022-07-22T03:05:05;97840.25;;;22.55;55.04
29733;BME280;16643;43.158;25.302;2022-07-22T03:07:31;97883.16;;;22.80;54.96
29733;BME280;16643;43.158;25.302;2022-07-22T03:09:57;97892.78;;;22.81;54.76
29733;BME280;16643;43.158;25.302;2022-07-22T03:12:23;97847.91;;;22.58;54.25
29733;BME280;16643;43.158;25.302;2022-07-22T03:14:49;97814.78;;;22.42;54.97
29733;BME280;16643;43.158;25.302;2022-07-22T03:17:15;97868.09;;;22.81;55.10
29733;BME280;16643;43.158;25.302;2022-07-22T03:19:40;97862.69;;;22.71;55.09
29733;BME280;16643;43.158;25.302;2022-07-22T03:22:06;97870.38;;;22.74;54.67
29733;BME280;16643;43.158;25.302;2022-07-22T03:24:33;97886.78;;;22.79;54.66
29733;BME280;16643;43.158;25.302;2022-07-22T03:26:59;97868.72;;;22.73;55.05
29733;BME280;16643;43.158;25.302;2022-07-22T03:29:25;97826.22;;;22.43;54.19
29733;BME280;16643;43.158;25.302;2022-07-22T03:31:51;97889.28;;;22.81;55.21
29733;BME280;16643;43.158;25.302;2022-07-22T03:34:17;97890.97;;;22.82;55.63
29733;BME280;16643;43.158;25.302;2022-07-22T03:36:42;97867.91;;;22.62;56.23
29733;BME280;16643;43.158;25.302;2022-07-22T03:39:08;97866.34;;;22.59;56.35
29733;BME280;16643;43.158;25.302;2022-07-22T03:41:33;97847.53;;;22.41;55.63
29733;BME280;16643;43.158;25.302;2022-07-22T03:43:59;97849.66;;;22.48;55.99
29733;BME280;16643;43.158;25.302;2022-07-22T03:46:25;97873.56;;;22.68;56.93
29733;BME280;16643;43.158;25.302;2022-07-22T03:48:50;97887.13;;;22.75;56.79
29733;BME280;16643;43.158;25.302;2022-07-22T03:51:16;97862.13;;;22.68;56.75
29733;BME280;16643;43.158;25.302;2022-07-22T03:53:41;97890.84;;;22.84;56.41
29733;BME280;16643;43.158;25.302;2022-07-22T03:56:08;97919.53;;;22.90;56.17
29733;BME280;16643;43.158;25.302;2022-07-22T03:58:34;97934.66;;;22.99;56.98
29733;BME280;16643;43.158;25.302;2022-07-22T04:00:59;97922.31;;;22.88;56.42
29733;BME280;16643;43.158;25.302;2022-07-22T04:03:25;97916.88;;;22.90;57.53
29733;BME280;16643;43.158;25.302;2022-07-22T04:05:50;97917.56;;;22.92;58.42
29733;BME280;16643;43.158;25.302;2022-07-22T04:08:17;97945.41;;;23.18;58.04
29733;BME280;16643;43.158;25.302;2022-07-22T04:10:43;97890.78;;;22.95;58.53
29733;BME280;16643;43.158;25.302;2022-07-22T04:13:09;97942.16;;;23.14;58.11
29733;BME280;16643;43.158;25.302;2022-07-22T04:15:35;97953.38;;;23.39;57.23
29733;BME280;16643;43.158;25.302;2022-07-22T04:18:00;97904.91;;;23.16;57.24
29733;BME280;16643;43.158;25.302;2022-07-22T04:20:27;97920.16;;;23.44;57.16
29733;BME280;16643;43.158;25.302;2022-07-22T04:22:52;97926.28;;;23.56;55.98
29733;BME280;16643;43.158;25.302;2022-07-22T04:25:18;97927.53;;;23.62;55.15
29733;BME280;16643;43.158;25.302;2022-07-22T04:27:44;97914.19;;;23.73;55.49
29733;BME280;16643;43.158;25.302;2022-07-22T04:30:10;97925.16;;;23.89;55.24
29733;BME280;16643;43.158;25.302;2022-07-22T04:32:36;97958.59;;;24.32;54.34
29733;BME280;16643;43.158;25.302;2022-07-22T04:35:02;97912.50;;;24.12;52.33
29733;BME280;16643;43.158;25.302;2022-07-22T04:37:28;97919.00;;;24.29;52.77
29733;BME280;16643;43.158;25.302;2022-07-22T04:39:54;97896.50;;;24.23;52.07
29733;BME280;16643;43.158;25.302;2022-07-22T04:42:19;97954.75;;;24.74;51.70
29733;BME280;16643;43.158;25.302;2022-07-22T04:44:45;97945.25;;;24.81;51.53
29733;BME280;16643;43.158;25.302;2022-07-22T04:47:12;97952.66;;;24.87;51.37
29733;BME280;16643;43.158;25.302;2022-07-22T04:49:38;97953.81;;;24.94;50.46
29733;BME280;16643;43.158;25.302;2022-07-22T04:52:03;97962.78;;;25.13;50.51
29733;BME280;16643;43.158;25.302;2022-07-22T04:54:29;97924.97;;;24.90;51.52
29733;BME280;16643;43.158;25.302;2022-07-22T04:56:55;97932.69;;;25.12;52.04
29733;BME280;16643;43.158;25.302;2022-07-22T04:59:20;97971.16;;;25.47;50.80
29733;BME280;16643;43.158;25.302;2022-07-22T05:01:46;97907.16;;;25.19;52.43
29733;BME280;16643;43.158;25.302;2022-07-22T05:04:12;97940.47;;;25.43;50.96
29733;BME280;16643;43.158;25.302;2022-07-22T05:06:37;97954.28;;;25.75;51.88
29733;BME280;16643;43.158;25.302;2022-07-22T05:09:03;97955.22;;;25.93;50.92
29733;BME280;16643;43.158;25.302;2022-07-22T05:11:29;97991.59;;;26.12;49.21
29733;BME280;16643;43.158;25.302;2022-07-22T05:13:55;97948.41;;;25.81;49.38
29733;BME280;16643;43.158;25.302;2022-07-22T05:16:20;97947.66;;;25.89;48.85
29733;BME280;16643;43.158;25.302;2022-07-22T05:18:46;97961.31;;;26.13;48.74
29733;BME280;16643;43.158;25.302;2022-07-22T05:21:12;97946.72;;;26.17;48.63
29733;BME280;16643;43.158;25.302;2022-07-22T05:23:37;97970.56;;;26.46;48.07
29733;BME280;16643;43.158;25.302;2022-07-22T05:26:06;97983.19;;;26.71;47.17
29733;BME280;16643;43.158;25.302;2022-07-22T05:28:32;97973.94;;;26.93;47.73
29733;BME280;16643;43.158;25.302;2022-07-22T05:30:57;97985.06;;;27.24;46.31
29733;BME280;16643;43.158;25.302;2022-07-22T05:33:23;97977.53;;;27.45;46.07
29733;BME280;16643;43.158;25.302;2022-07-22T05:35:48;97970.53;;;27.62;45.48
29733;BME280;16643;43.158;25.302;2022-07-22T05:38:14;97987.84;;;27.76;45.70
29733;BME280;16643;43.158;25.302;2022-07-22T05:40:40;97939.16;;;27.46;44.96
29733;BME280;16643;43.158;25.302;2022-07-22T05:43:05;97983.72;;;27.90;44.67
29733;BME280;16643;43.158;25.302;2022-07-22T05:45:31;97992.69;;;28.06;43.62
29733;BME280;16643;43.158;25.302;2022-07-22T05:47:57;98002.72;;;28.38;44.33
29733;BME280;16643;43.158;25.302;2022-07-22T05:50:22;98020.88;;;28.69;43.24
29733;BME280;16643;43.158;25.302;2022-07-22T05:52:48;98002.34;;;28.75;42.94
29733;BME280;16643;43.158;25.302;2022-07-22T05:55:13;98030.91;;;29.01;41.21
29733;BME280;16643;43.158;25.302;2022-07-22T05:57:39;98010.13;;;28.86;42.73
29733;BME280;16643;43.158;25.302;2022-07-22T06:00:06;97986.66;;;28.80;41.15
29733;BME280;16643;43.158;25.302;2022-07-22T06:02:32;98017.69;;;29.07;40.82
29733;BME280;16643;43.158;25.302;2022-07-22T06:04:57;98002.09;;;28.95;40.13
29733;BME280;16643;43.158;25.302;2022-07-22T06:07:26;97993.38;;;28.84;40.60
29733;BME280;16643;43.158;25.302;2022-07-22T06:09:52;98017.00;;;29.05;40.34
29733;BME280;16643;43.158;25.302;2022-07-22T06:12:18;98018.38;;;29.17;41.03
29733;BME280;16643;43.158;25.302;2022-07-22T06:14:43;97999.44;;;29.11;40.45
29733;BME280;16643;43.158;25.302;2022-07-22T06:17:09;98046.91;;;29.43;39.20
29733;BME280;16643;43.158;25.302;2022-07-22T06:19:35;98041.63;;;29.25;39.68
29733;BME280;16643;43.158;25.302;2022-07-22T06:22:01;98033.28;;;29.28;42.13
29733;BME280;16643;43.158;25.302;2022-07-22T06:24:27;97986.56;;;29.31;41.69
29733;BME280;16643;43.158;25.302;2022-07-22T06:26:52;98018.41;;;29.42;40.50
29733;BME280;16643;43.158;25.302;2022-07-22T06:29:18;98026.44;;;29.74;40.97
29733;BME280;16643;43.158;25.302;2022-07-22T06:31:44;98032.66;;;29.67;40.40
29733;BME280;16643;43.158;25.302;2022-07-22T06:34:10;98036.16;;;29.75;40.60
29733;BME280;16643;43.158;25.302;2022-07-22T06:36:35;97999.81;;;29.65;40.66
29733;BME280;16643;43.158;25.302;2022-07-22T06:39:01;98001.47;;;29.74;42.05
29733;BME280;16643;43.158;25.302;2022-07-22T06:41:27;98050.00;;;30.36;40.87
29733;BME280;16643;43.158;25.302;2022-07-22T06:43:53;98002.72;;;30.26;39.07
29733;BME280;16643;43.158;25.302;2022-07-22T06:46:19;98054.44;;;30.59;39.67
29733;BME280;16643;43.158;25.302;2022-07-22T06:48:44;98035.56;;;30.37;37.74
29733;BME280;16643;43.158;25.302;2022-07-22T06:51:10;98012.44;;;30.36;37.64
29733;BME280;16643;43.158;25.302;2022-07-22T06:53:36;98024.34;;;30.33;37.50
29733;BME280;16643;43.158;25.302;2022-07-22T06:56:02;98068.25;;;30.40;38.80
29733;BME280;16643;43.158;25.302;2022-07-22T06:58:27;98056.75;;;30.15;38.84
29733;BME280;16643;43.158;25.302;2022-07-22T07:00:53;98049.53;;;30.24;38.34
29733;BME280;16643;43.158;25.302;2022-07-22T07:03:19;98013.28;;;30.28;38.08
29733;BME280;16643;43.158;25.302;2022-07-22T07:05:44;98037.72;;;30.41;37.94
29733;BME280;16643;43.158;25.302;2022-07-22T07:08:10;98004.38;;;30.27;38.38
29733;BME280;16643;43.158;25.302;2022-07-22T07:10:36;98036.19;;;30.55;38.41
29733;BME280;16643;43.158;25.302;2022-07-22T07:13:01;98051.88;;;30.74;39.60
29733;BME280;16643;43.158;25.302;2022-07-22T07:15:27;98056.63;;;31.03;37.95
29733;BME280;16643;43.158;25.302;2022-07-22T07:17:54;98047.00;;;30.78;38.16
29733;BME280;16643;43.158;25.302;2022-07-22T07:20:21;97995.66;;;30.73;38.66
29733;BME280;16643;43.158;25.302;2022-07-22T07:22:47;98023.63;;;31.17;38.31
29733;BME280;16643;43.158;25.302;2022-07-22T07:25:13;98063.50;;;31.59;38.06
29733;BME280;16643;43.158;25.302;2022-07-22T07:27:38;98035.88;;;31.20;37.46
29733;BME280;16643;43.158;25.302;2022-07-22T07:30:05;98067.47;;;31.40;37.09
29733;BME280;16643;43.158;25.302;2022-07-22T07:32:31;98036.28;;;31.54;38.57
29733;BME280;16643;43.158;25.302;2022-07-22T07:34:57;98038.69;;;31.72;37.25
29733;BME280;16643;43.158;25.302;2022-07-22T07:37:22;98043.72;;;31.75;37.66
29733;BME280;16643;43.158;25.302;2022-07-22T07:39:48;98048.38;;;31.81;37.77
29733;BME280;16643;43.158;25.302;2022-07-22T07:42:17;98075.16;;;32.12;38.17
29733;BME280;16643;43.158;25.302;2022-07-22T07:44:43;98078.91;;;32.26;37.32
29733;BME280;16643;43.158;25.302;2022-07-22T07:47:08;98055.53;;;31.89;36.23
29733;BME280;16643;43.158;25.302;2022-07-22T07:49:34;98065.09;;;32.06;36.96
29733;BME280;16643;43.158;25.302;2022-07-22T07:51:59;98075.88;;;32.06;36.08
29733;BME280;16643;43.158;25.302;2022-07-22T07:54:25;98065.53;;;32.18;35.19
29733;BME280;16643;43.158;25.302;2022-07-22T07:56:51;98053.66;;;31.89;36.29
29733;BME280;16643;43.158;25.302;2022-07-22T07:59:17;98061.75;;;32.27;36.62
29733;BME280;16643;43.158;25.302;2022-07-22T08:01:43;98058.03;;;32.42;37.84
29733;BME280;16643;43.158;25.302;2022-07-22T08:04:09;98058.47;;;32.31;34.83
29733;BME280;16643;43.158;25.302;2022-07-22T08:06:34;98087.72;;;32.64;36.88
29733;BME280;16643;43.158;25.302;2022-07-22T08:09:00;98055.88;;;32.53;35.35
29733;BME280;16643;43.158;25.302;2022-07-22T08:11:26;98083.22;;;32.79;34.99
29733;BME280;16643;43.158;25.302;2022-07-22T08:13:51;98068.31;;;32.68;35.36
29733;BME280;16643;43.158;25.302;2022-07-22T08:16:17;98084.78;;;32.88;35.94
29733;BME280;16643;43.158;25.302;2022-07-22T08:18:43;98085.41;;;33.05;34.75
29733;BME280;16643;43.158;25.302;2022-07-22T08:21:08;98054.09;;;33.04;36.64
29733;BME280;16643;43.158;25.302;2022-07-22T08:23:34;98067.31;;;33.35;35.00
29733;BME280;16643;43.158;25.302;2022-07-22T08:26:00;98028.66;;;32.92;33.58
29733;BME280;16643;43.158;25.302;2022-07-22T08:28:26;98050.31;;;32.69;33.78
29733;BME280;16643;43.158;25.302;2022-07-22T08:30:52;98077.19;;;33.13;35.60
29733;BME280;16643;43.158;25.302;2022-07-22T08:33:19;98060.66;;;33.16;34.32
29733;BME280;16643;43.158;25.302;2022-07-22T08:35:44;98056.53;;;32.69;32.89
29733;BME280;16643;43.158;25.302;2022-07-22T08:38:11;98090.63;;;33.06;34.69
29733;BME280;16643;43.158;25.302;2022-07-22T08:40:36;98072.59;;;32.92;34.62
29733;BME280;16643;43.158;25.302;2022-07-22T08:43:02;98071.53;;;33.44;36.40
29733;BME280;16643;43.158;25.302;2022-07-22T08:45:29;98076.94;;;33.65;33.92
29733;BME280;16643;43.158;25.302;2022-07-22T08:47:56;98075.06;;;33.66;31.34
29733;BME280;16643;43.158;25.302;2022-07-22T08:50:22;98060.66;;;33.16;31.76
29733;BME280;16643;43.158;25.302;2022-07-22T08:52:48;98075.34;;;33.28;33.95
29733;BME280;16643;43.158;25.302;2022-07-22T08:55:14;98072.66;;;33.49;33.29
29733;BME280;16643;43.158;25.302;2022-07-22T08:57:45;98049.44;;;33.55;31.99
29733;BME280;16643;43.158;25.302;2022-07-22T09:00:13;98111.91;;;33.52;30.68
29733;BME280;16643;43.158;25.302;2022-07-22T09:02:40;98091.28;;;33.30;30.43
29733;BME280;16643;43.158;25.302;2022-07-22T09:05:08;98070.69;;;33.43;31.68
29733;BME280;16643;43.158;25.302;2022-07-22T09:07:40;98104.94;;;33.64;31.50
29733;BME280;16643;43.158;25.302;2022-07-22T09:10:11;98089.50;;;32.86;29.35
29733;BME280;16643;43.158;25.302;2022-07-22T09:12:57;98087.38;;;33.32;31.16
29733;BME280;16643;43.158;25.302;2022-07-22T09:15:32;98101.69;;;33.69;30.10
29733;BME280;16643;43.158;25.302;2022-07-22T09:17:59;98128.22;;;34.29;29.45
29733;BME280;16643;43.158;25.302;2022-07-22T09:20:26;98108.06;;;34.32;29.96
29733;BME280;16643;43.158;25.302;2022-07-22T09:22:53;98078.38;;;34.10;27.97
29733;BME280;16643;43.158;25.302;2022-07-22T09:25:33;98087.03;;;33.99;29.00
29733;BME280;16643;43.158;25.302;2022-07-22T09:30:31;98093.63;;;34.46;28.09
29733;BME280;16643;43.158;25.302;2022-07-22T09:32:58;98086.06;;;34.63;28.85
29733;BME280;16643;43.158;25.302;2022-07-22T09:35:24;98102.78;;;34.79;29.85
29733;BME280;16643;43.158;25.302;2022-07-22T09:37:53;98070.78;;;34.48;28.46
29733;BME280;16643;43.158;25.302;2022-07-22T09:42:49;98091.44;;;34.97;28.99
29733;BME280;16643;43.158;25.302;2022-07-22T09:45:16;98120.56;;;34.67;27.19
29733;BME280;16643;43.158;25.302;2022-07-22T09:47:43;98080.91;;;34.74;27.58
29733;BME280;16643;43.158;25.302;2022-07-22T09:50:23;98082.50;;;34.97;27.76
29733;BME280;16643;43.158;25.302;2022-07-22T09:52:50;98102.91;;;35.06;27.17
29733;BME280;16643;43.158;25.302;2022-07-22T09:55:18;98097.00;;;34.82;27.34
29733;BME280;16643;43.158;25.302;2022-07-22T09:57:45;98079.03;;;35.09;29.02
29733;BME280;16643;43.158;25.302;2022-07-22T10:00:16;98077.63;;;35.33;27.43
29733;BME280;16643;43.158;25.302;2022-07-22T10:02:48;98086.53;;;35.20;26.76
29733;BME280;16643;43.158;25.302;2022-07-22T10:05:16;98069.56;;;34.92;28.71
29733;BME280;16643;43.158;25.302;2022-07-22T10:07:43;98112.22;;;35.38;28.64
29733;BME280;16643;43.158;25.302;2022-07-22T10:10:12;98108.78;;;35.22;28.17
29733;BME280;16643;43.158;25.302;2022-07-22T10:12:38;98115.16;;;35.43;29.14
29733;BME280;16643;43.158;25.302;2022-07-22T10:15:06;98063.34;;;34.91;27.45
29733;BME280;16643;43.158;25.302;2022-07-22T10:17:35;98072.25;;;34.85;27.67
29733;BME280;16643;43.158;25.302;2022-07-22T10:20:02;98101.78;;;35.35;28.16
29733;BME280;16643;43.158;25.302;2022-07-22T10:25:10;98083.69;;;35.35;26.95
29733;BME280;16643;43.158;25.302;2022-07-22T10:27:57;98112.28;;;35.64;26.99
29733;BME280;16643;43.158;25.302;2022-07-22T10:33:11;98083.72;;;35.48;26.91
29733;BME280;16643;43.158;25.302;2022-07-22T10:38:11;98096.88;;;35.64;26.75
29733;BME280;16643;43.158;25.302;2022-07-22T10:40:51;98116.50;;;35.86;25.83
29733;BME280;16643;43.158;25.302;2022-07-22T10:43:28;98074.41;;;35.84;25.94
29733;BME280;16643;43.158;25.302;2022-07-22T10:45:59;98067.13;;;36.04;26.32
29733;BME280;16643;43.158;25.302;2022-07-22T10:48:45;98100.72;;;36.23;25.27
29733;BME280;16643;43.158;25.302;2022-07-22T10:51:20;98101.31;;;36.12;24.28
29733;BME280;16643;43.158;25.302;2022-07-22T10:53:55;98095.28;;;36.23;24.37
29733;BME280;16643;43.158;25.302;2022-07-22T10:56:31;98112.34;;;35.97;26.01
29733;BME280;16643;43.158;25.302;2022-07-22T10:59:16;98112.75;;;36.07;24.59
29733;BME280;16643;43.158;25.302;2022-07-22T11:01:50;98067.75;;;35.93;23.47
29733;BME280;16643;43.158;25.302;2022-07-22T11:04:24;98115.47;;;36.40;23.73
29733;BME280;16643;43.158;25.302;2022-07-22T11:06:52;98105.25;;;36.55;22.84
29733;BME280;16643;43.158;25.302;2022-07-22T11:09:23;98095.03;;;36.44;23.58
29733;BME280;16643;43.158;25.302;2022-07-22T11:11:53;98117.94;;;36.61;23.06
29733;BME280;16643;43.158;25.302;2022-07-22T11:14:30;98106.94;;;36.23;22.74
29733;BME280;16643;43.158;25.302;2022-07-22T11:16:59;98096.50;;;36.20;24.24
29733;BME280;16643;43.158;25.302;2022-07-22T11:19:56;98105.03;;;36.37;23.14
29733;BME280;16643;43.158;25.302;2022-07-22T11:22:27;98116.06;;;36.62;24.04
29733;BME280;16643;43.158;25.302;2022-07-22T11:25:25;98099.81;;;36.49;22.87
29733;BME280;16643;43.158;25.302;2022-07-22T11:28:15;98107.75;;;36.44;22.59
29733;BME280;16643;43.158;25.302;2022-07-22T11:31:33;98091.28;;;36.52;22.55
29733;BME280;16643;43.158;25.302;2022-07-22T11:34:31;98058.59;;;36.27;22.55
29733;BME280;16643;43.158;25.302;2022-07-22T11:37:19;98109.81;;;36.48;21.56
29733;BME280;16643;43.158;25.302;2022-07-22T11:40:04;98103.81;;;36.40;22.08
29733;BME280;16643;43.158;25.302;2022-07-22T11:42:32;98057.16;;;35.98;22.01
29733;BME280;16643;43.158;25.302;2022-07-22T11:45:01;98088.59;;;36.32;22.53
29733;BME280;16643;43.158;25.302;2022-07-22T11:47:33;98089.19;;;36.54;22.47
29733;BME280;16643;43.158;25.302;2022-07-22T11:50:09;98099.75;;;36.68;22.95
29733;BME280;16643;43.158;25.302;2022-07-22T11:52:38;98067.53;;;36.27;21.27
29733;BME280;16643;43.158;25.302;2022-07-22T11:55:14;98097.34;;;36.27;21.72
29733;BME280;16643;43.158;25.302;2022-07-22T11:57:47;98092.13;;;36.39;21.80
29733;BME280;16643;43.158;25.302;2022-07-22T12:00:13;98030.47;;;35.95;23.06
29733;BME280;16643;43.158;25.302;2022-07-22T12:02:59;98086.88;;;36.51;21.98
29733;BME280;16643;43.158;25.302;2022-07-22T12:05:29;98084.78;;;36.72;22.14
29733;BME280;16643;43.158;25.302;2022-07-22T12:08:22;98088.06;;;36.81;21.30
29733;BME280;16643;43.158;25.302;2022-07-22T12:11:10;98055.66;;;36.02;21.63
29733;BME280;16643;43.158;25.302;2022-07-22T12:13:55;98086.91;;;36.24;21.80
29733;BME280;16643;43.158;25.302;2022-07-22T12:17:08;98024.84;;;35.83;22.81
29733;BME280;16643;43.158;25.302;2022-07-22T12:19:51;98088.16;;;36.09;21.29
29733;BME280;16643;43.158;25.302;2022-07-22T12:22:21;98080.06;;;35.95;22.26
29733;BME280;16643;43.158;25.302;2022-07-22T12:24:59;98066.91;;;36.19;21.25
29733;BME280;16643;43.158;25.302;2022-07-22T12:27:25;98051.09;;;36.09;22.11
29733;BME280;16643;43.158;25.302;2022-07-22T12:29:51;98055.88;;;36.20;21.20
29733;BME280;16643;43.158;25.302;2022-07-22T12:35:01;98065.25;;;36.11;21.04
29733;BME280;16643;43.158;25.302;2022-07-22T12:40:06;98023.34;;;36.20;20.69
29733;BME280;16643;43.158;25.302;2022-07-22T12:42:40;98077.09;;;36.50;20.87
29733;BME280;16643;43.158;25.302;2022-07-22T12:45:14;98060.03;;;36.43;21.02
29733;BME280;16643;43.158;25.302;2022-07-22T12:47:44;98067.50;;;36.54;21.45
29733;BME280;16643;43.158;25.302;2022-07-22T12:52:43;98048.69;;;36.65;21.07
29733;BME280;16643;43.158;25.302;2022-07-22T12:55:09;98047.44;;;36.61;21.87
29733;BME280;16643;43.158;25.302;2022-07-22T12:57:35;98033.63;;;36.83;21.48
29733;BME280;16643;43.158;25.302;2022-07-22T13:00:00;98047.75;;;36.98;20.52
29733;BME280;16643;43.158;25.302;2022-07-22T13:02:26;98043.25;;;36.79;20.99
29733;BME280;16643;43.158;25.302;2022-07-22T13:04:51;98038.06;;;36.64;20.93
29733;BME280;16643;43.158;25.302;2022-07-22T13:07:17;98038.06;;;36.64;21.62
29733;BME280;16643;43.158;25.302;2022-07-22T13:09:42;98036.19;;;36.64;21.10
29733;BME280;16643;43.158;25.302;2022-07-22T13:12:08;98042.28;;;36.47;20.89
29733;BME280;16643;43.158;25.302;2022-07-22T13:14:35;98066.50;;;36.42;20.54
29733;BME280;16643;43.158;25.302;2022-07-22T13:17:00;98052.75;;;35.97;21.20
29733;BME280;16643;43.158;25.302;2022-07-22T13:19:26;98069.81;;;35.91;21.18